Ellisboro, North Carolina
Current Conditions -  °F | °C
As of 11:55 AM on Wednesday 22 Oct 2014 (Local Time) from KSIF Reporting Station
Clear Clear  
Wind Chill: 61°   Ceiling: Unl
Heat Index: 61°   Visibility: 10mi
Dew Point: 42°   Wind: 7mph
Humidity: 50%   Direction: 350°N
Pressure: 30.04"   Gusts: 16mph
Location:  36.3697°N, 79.9626°W
Report Text: KSIF 221555Z AUTO 35006G14KT 10SM CLR 16/06 A3004 RMK AO2 T01600055
Loading
Personal Weather Stations






























Interactive Weather Map
Tropical Storm Tracking
New forecast layout! Learn more

10-Day Weather Forecast

Advertisements
Track Severe Weather on mobile